Two Hills, Canada
Current Conditions -  °F | °C
As of 3:00 PM on Saturday 25 Oct 2014 (Local Time) from CYED Reporting Station
Overcast Overcast  
Wind Chill: 37°   Ceiling: 8400
Heat Index: 45°   Visibility: 9mi
Dew Point: 25°   Wind: 16mph
Humidity: 46%   Direction: 100°E
Pressure: 29.79"   Gusts: NA
Location:  53.72°N, 111.75°W
Report Text: CYED 252100Z AUTO 10014KT 9SM OVC084 07/M04 A2979 RMK SLP113
Loading
Personal Weather Stations






























Interactive Weather Map
Tropical Storm Tracking
New forecast layout! Learn more

10-Day Weather Forecast

Advertisements
Track Severe Weather on mobile